createdAt,value
2022-11-12T00:03:59.241Z,9.52
2022-11-12T00:09:19.108Z,9.48
2022-11-12T00:14:38.810Z,9.51
2022-11-12T00:19:58.709Z,9.44
2022-11-12T00:25:18.573Z,9.39
2022-11-12T00:30:40.101Z,9.38
2022-11-12T00:36:00.183Z,9.34
2022-11-12T00:41:20.071Z,9.31
2022-11-12T00:46:39.787Z,9.37
2022-11-12T00:51:59.726Z,9.35
2022-11-12T00:57:19.479Z,9.16
2022-11-12T01:02:44.182Z,8.95
2022-11-12T01:08:06.207Z,8.93
2022-11-12T01:13:26.017Z,8.99
2022-11-12T01:18:47.300Z,8.80
2022-11-12T01:24:08.219Z,8.68
2022-11-12T01:29:27.987Z,8.71
2022-11-12T01:34:47.717Z,8.71
2022-11-12T01:40:08.342Z,8.73
2022-11-12T01:45:28.397Z,8.67
2022-11-12T01:50:48.699Z,8.56
2022-11-12T01:56:08.975Z,8.46
2022-11-12T02:01:28.833Z,8.33
2022-11-12T02:06:50.963Z,8.28
2022-11-12T02:12:11.135Z,8.25
2022-11-12T02:17:31.256Z,8.15
2022-11-12T02:22:51.134Z,8.14
2022-11-12T02:28:10.957Z,8.04
2022-11-12T02:33:30.972Z,7.91
2022-11-12T02:38:50.888Z,7.88
2022-11-12T02:44:10.653Z,7.93
2022-11-12T02:49:30.424Z,7.98
2022-11-12T02:54:50.420Z,7.95
2022-11-12T03:00:12.669Z,7.91
2022-11-12T03:05:34.797Z,7.90
2022-11-12T03:10:54.961Z,7.78
2022-11-12T03:16:14.720Z,7.76
2022-11-12T03:21:34.662Z,7.51
2022-11-12T03:26:54.488Z,7.55
2022-11-12T03:32:14.397Z,7.46
2022-11-12T03:37:34.209Z,7.31
2022-11-12T03:42:54.319Z,7.21
2022-11-12T03:48:14.381Z,7.12
2022-11-12T03:53:34.117Z,7.14
2022-11-12T03:58:53.928Z,7.03
2022-11-12T04:04:13.765Z,7.02
2022-11-12T04:09:33.939Z,6.96
2022-11-12T04:14:53.818Z,6.85
2022-11-12T04:20:13.702Z,6.84
2022-11-12T04:25:33.572Z,6.80
2022-11-12T04:30:53.408Z,6.77
2022-11-12T04:36:13.366Z,6.80
2022-11-12T04:41:33.153Z,6.77
2022-11-12T04:46:52.940Z,6.79
2022-11-12T04:52:12.746Z,6.77
2022-11-12T04:57:32.777Z,6.75
2022-11-12T05:02:52.804Z,7.01
2022-11-12T05:08:12.623Z,7.11
2022-11-12T05:13:32.431Z,7.12
2022-11-12T05:18:52.289Z,7.29
2022-11-12T05:24:27.711Z,7.35
2022-11-12T05:29:52.101Z,7.49
2022-11-12T05:35:11.813Z,7.41
2022-11-12T05:40:31.572Z,7.48
2022-11-12T05:45:51.248Z,7.39
2022-11-12T05:51:13.395Z,7.27
2022-11-12T05:56:34.326Z,7.17
2022-11-12T06:01:54.240Z,7.17
2022-11-12T06:07:14.005Z,7.20
2022-11-12T06:12:33.882Z,7.15
2022-11-12T06:17:54.438Z,7.08
2022-11-12T06:23:14.554Z,7.00
2022-11-12T06:28:34.325Z,6.97
2022-11-12T06:33:54.091Z,6.94
2022-11-12T06:39:13.990Z,6.94
2022-11-12T06:44:34.136Z,6.97
2022-11-12T06:49:54.032Z,6.91
2022-11-12T06:55:14.337Z,6.96
2022-11-12T07:00:34.175Z,6.96
2022-11-12T07:05:54.093Z,6.92
2022-11-12T07:11:13.846Z,6.92
2022-11-12T07:16:33.963Z,6.95
2022-11-12T07:21:54.002Z,6.92
2022-11-12T07:27:13.968Z,6.91
2022-11-12T07:32:36.273Z,6.86
2022-11-12T07:38:00.214Z,6.82
2022-11-12T07:43:19.979Z,6.79
2022-11-12T07:48:40.688Z,6.82
2022-11-12T07:54:00.520Z,6.83
2022-11-12T07:59:20.351Z,6.88
2022-11-12T08:04:40.131Z,6.92
2022-11-12T08:09:59.994Z,6.91
2022-11-12T08:15:19.772Z,6.84
2022-11-12T08:20:39.745Z,6.79
2022-11-12T08:26:01.059Z,6.82
2022-11-12T08:31:22.244Z,6.78
2022-11-12T08:36:42.051Z,6.94
2022-11-12T08:42:01.827Z,6.94
2022-11-12T08:47:21.487Z,7.04
2022-11-12T08:52:41.467Z,7.16
2022-11-12T08:58:01.948Z,7.32
2022-11-12T09:03:24.603Z,7.34
2022-11-12T09:08:44.253Z,7.49
2022-11-12T09:14:04.165Z,7.56
2022-11-12T09:19:23.809Z,7.78
2022-11-12T09:24:43.538Z,7.83
2022-11-12T09:30:03.961Z,7.90
2022-11-12T09:35:23.751Z,8.01
2022-11-12T09:40:52.654Z,8.10
2022-11-12T09:46:38.910Z,8.27
2022-11-12T09:52:14.152Z,8.39
2022-11-12T09:57:34.443Z,8.38
2022-11-12T10:02:54.298Z,8.44
2022-11-12T10:08:37.690Z,8.52
2022-11-12T10:14:13.134Z,8.58
2022-11-12T10:20:00.818Z,8.54
2022-11-12T10:25:21.068Z,8.59
2022-11-12T10:30:42.774Z,8.58
2022-11-12T10:36:26.238Z,8.78
2022-11-12T10:41:46.489Z,8.88
2022-11-12T10:47:18.505Z,8.94
2022-11-12T10:52:38.397Z,8.92
2022-11-12T10:58:04.351Z,9.01
2022-11-12T11:03:36.121Z,9.00
2022-11-12T11:09:16.975Z,9.19
2022-11-12T11:14:37.189Z,9.22
2022-11-12T11:19:56.852Z,9.24
2022-11-12T11:25:26.968Z,9.26
2022-11-12T11:31:17.684Z,9.36
2022-11-12T11:37:04.493Z,9.47
2022-11-12T11:42:52.023Z,9.54
2022-11-12T11:48:22.032Z,9.47
2022-11-12T11:54:00.735Z,9.46
2022-11-12T11:59:45.684Z,9.47
2022-11-12T12:05:17.776Z,9.50
2022-11-12T12:11:11.254Z,9.55
2022-11-12T12:16:58.003Z,9.72
2022-11-12T12:22:24.595Z,9.76
2022-11-12T12:27:53.840Z,9.76
2022-11-12T12:33:35.994Z,9.78
2022-11-12T12:39:18.663Z,9.85
2022-11-12T12:44:45.537Z,9.89
2022-11-12T12:50:11.938Z,9.98
2022-11-12T12:55:40.344Z,10.03
2022-11-12T13:01:02.474Z,10.01
2022-11-12T13:06:22.675Z,10.04
2022-11-12T13:11:42.473Z,9.92
2022-11-12T13:17:08.318Z,9.86
2022-11-12T13:22:28.011Z,9.91
2022-11-12T13:27:47.729Z,9.93
2022-11-12T13:33:22.726Z,9.97
2022-11-12T13:38:42.508Z,9.98
2022-11-12T13:44:07.429Z,10.04
2022-11-12T13:49:27.254Z,9.97
2022-11-12T13:54:46.922Z,9.87
2022-11-12T14:00:18.780Z,9.95
2022-11-12T14:05:38.803Z,9.95
2022-11-12T14:11:06.093Z,9.90
2022-11-12T14:16:37.832Z,9.88
2022-11-12T14:22:02.117Z,9.94
2022-11-12T14:27:28.196Z,9.93
2022-11-12T14:32:54.203Z,9.94
2022-11-12T14:38:25.151Z,9.93
2022-11-12T14:44:10.887Z,9.89
2022-11-12T14:49:44.290Z,9.84
2022-11-12T14:55:14.737Z,9.90
2022-11-12T15:00:41.978Z,9.88
2022-11-12T15:06:02.042Z,9.81
2022-11-12T15:11:25.803Z,9.82
2022-11-12T15:16:46.188Z,9.76
2022-11-12T15:22:05.885Z,9.75
2022-11-12T15:27:41.160Z,9.77
2022-11-12T15:33:13.386Z,9.78
2022-11-12T15:38:35.854Z,9.86
2022-11-12T15:43:56.555Z,9.89
2022-11-12T15:49:16.794Z,9.82
2022-11-12T15:54:40.877Z,9.77
2022-11-12T16:00:08.375Z,9.68
2022-11-12T16:05:29.059Z,9.65
2022-11-12T16:10:49.407Z,9.53
2022-11-12T16:16:11.765Z,9.42
2022-11-12T16:21:31.503Z,9.45
2022-11-12T16:26:51.760Z,9.39
2022-11-12T16:32:13.711Z,9.35
2022-11-12T16:37:33.819Z,9.46
2022-11-12T16:42:54.157Z,9.35
2022-11-12T16:48:22.205Z,9.31
2022-11-12T16:53:42.458Z,9.34
2022-11-12T16:59:02.216Z,9.22
2022-11-12T17:04:24.486Z,9.28
2022-11-12T17:09:44.421Z,9.36
2022-11-12T17:15:05.551Z,9.34
2022-11-12T17:20:25.598Z,9.41
2022-11-12T17:25:45.313Z,9.36
2022-11-12T17:31:06.154Z,9.33
2022-11-12T17:36:26.910Z,9.30
2022-11-12T17:41:46.656Z,9.28
2022-11-12T17:47:06.458Z,9.29
2022-11-12T17:52:26.433Z,9.29
2022-11-12T17:57:48.619Z,9.22
2022-11-12T18:03:08.520Z,9.16
2022-11-12T18:08:28.326Z,9.09
2022-11-12T18:13:48.264Z,9.13
2022-11-12T18:19:08.412Z,9.08
2022-11-12T18:24:28.553Z,8.92
2022-11-12T18:29:48.412Z,8.91
2022-11-12T18:35:08.438Z,8.96
2022-11-12T18:40:29.162Z,8.99
2022-11-12T18:45:56.542Z,9.01
2022-11-12T18:51:19.254Z,8.99
2022-11-12T18:56:39.057Z,8.94
2022-11-12T19:01:59.160Z,8.90
2022-11-12T19:07:19.399Z,8.89
2022-11-12T19:12:39.688Z,8.87
2022-11-12T19:18:00.330Z,8.82
2022-11-12T19:23:20.495Z,8.88
2022-11-12T19:28:40.950Z,8.77
2022-11-12T19:34:01.125Z,8.73
2022-11-12T19:39:20.884Z,8.80
2022-11-12T19:44:40.914Z,8.84
2022-11-12T19:50:00.927Z,8.86
2022-11-12T19:55:20.774Z,8.86
2022-11-12T20:00:40.621Z,8.81
2022-11-12T20:06:03.565Z,8.82
2022-11-12T20:11:23.362Z,8.80
2022-11-12T20:16:43.193Z,8.68
2022-11-12T20:22:03.092Z,8.66
2022-11-12T20:27:23.104Z,8.66
2022-11-12T20:32:42.794Z,8.59
2022-11-12T20:38:04.049Z,8.57
2022-11-12T20:43:28.929Z,8.56
2022-11-12T20:48:49.369Z,8.52
2022-11-12T20:54:09.235Z,8.57
2022-11-12T20:59:29.245Z,8.52
2022-11-12T21:04:49.259Z,8.55
2022-11-12T21:10:09.251Z,8.64
2022-11-12T21:15:29.193Z,8.67
2022-11-12T21:20:49.090Z,8.57
2022-11-12T21:26:17.734Z,8.60
2022-11-12T21:31:37.690Z,8.55
2022-11-12T21:36:57.736Z,8.55
2022-11-12T21:42:17.597Z,8.63
2022-11-12T21:47:37.474Z,8.65
2022-11-12T21:52:57.533Z,8.64
2022-11-12T21:58:17.387Z,8.68
2022-11-12T22:03:38.161Z,8.62
2022-11-12T22:08:58.342Z,8.64
2022-11-12T22:14:18.414Z,8.67
2022-11-12T22:19:38.190Z,8.73
2022-11-12T22:24:58.081Z,8.69
2022-11-12T22:30:18.104Z,8.73
2022-11-12T22:35:37.977Z,8.67
2022-11-12T22:41:06.309Z,8.57
2022-11-12T22:46:29.158Z,8.48
2022-11-12T22:51:48.963Z,8.56
2022-11-12T22:57:08.740Z,8.57
2022-11-12T23:02:28.453Z,8.54
2022-11-12T23:07:48.265Z,8.50
2022-11-12T23:13:07.952Z,8.61
2022-11-12T23:18:28.438Z,8.67
2022-11-12T23:23:48.843Z,8.53
2022-11-12T23:29:11.260Z,8.60
2022-11-12T23:34:31.339Z,8.57
2022-11-12T23:39:51.163Z,8.29
2022-11-12T23:45:10.919Z,8.36
2022-11-12T23:50:30.785Z,8.35
2022-11-12T23:55:50.579Z,8.37
